X  Close Metar Aviation Weather Data     LYNI Nis Airport
Temperature
1°C Temperature
0°C Dewpoint
93% Humidity



Wind
13 MPH
21 KM/H
6 M/S
11 KTS



310°
NW
Current Conditions

Light Snow Light Snow
Pressure 1022.92 (hPa) - 30.21 (inHg)
Visibility 6.2 (mile) - 10 (km)
Airport
Airport-code LYNI

Location: Nis Airport
Distance: 63 (mi)

Metar:
LYNI 290730Z 31011KT 9999 -SN SCT007 BKN010 OVC020 01/M00 Q1023 NOSIG

Time: 29-01-2023 08:30 CET